createdAt,value
2019-04-27T00:02:18.122Z,3.50
2019-04-27T00:05:09.427Z,3.43
2019-04-27T00:07:46.042Z,3.40
2019-04-27T00:10:28.578Z,3.30
2019-04-27T00:13:03.916Z,3.57
2019-04-27T00:15:41.174Z,3.30
2019-04-27T00:18:27.879Z,3.50
2019-04-27T00:21:03.581Z,3.93
2019-04-27T00:23:33.989Z,3.70
2019-04-27T00:26:03.433Z,3.53
2019-04-27T00:28:33.908Z,3.70
2019-04-27T00:31:03.412Z,3.60
2019-04-27T00:33:33.959Z,3.23
2019-04-27T00:36:10.195Z,3.80
2019-04-27T00:38:47.173Z,3.77
2019-04-27T00:41:19.153Z,3.40
2019-04-27T00:43:47.859Z,3.30
2019-04-27T00:46:17.284Z,3.40
2019-04-27T00:48:46.392Z,3.30
2019-04-27T00:51:15.754Z,3.80
2019-04-27T00:53:45.992Z,3.37
2019-04-27T00:56:42.961Z,2.73
2019-04-27T00:59:33.061Z,3.53
2019-04-27T01:02:16.555Z,4.03
2019-04-27T01:04:47.667Z,3.40
2019-04-27T01:07:16.821Z,3.47
2019-04-27T01:09:45.991Z,3.47
2019-04-27T01:12:15.670Z,3.00
2019-04-27T01:14:45.199Z,3.30
2019-04-27T01:17:14.749Z,2.73
2019-04-27T01:19:44.776Z,2.80
2019-04-27T01:22:13.999Z,2.80
2019-04-27T01:24:43.129Z,3.27
2019-04-27T01:27:28.939Z,3.17
2019-04-27T01:29:59.663Z,3.20
2019-04-27T01:32:29.262Z,3.27
2019-04-27T01:34:59.197Z,3.53
2019-04-27T01:37:28.816Z,3.30
2019-04-27T01:39:59.052Z,4.30
2019-04-27T01:42:29.480Z,3.80
2019-04-27T01:44:59.518Z,3.93
2019-04-27T01:47:28.984Z,3.77
2019-04-27T01:49:58.560Z,3.87
2019-04-27T01:52:29.192Z,3.43
2019-04-27T01:55:01.000Z,4.00
2019-04-27T01:57:30.515Z,2.90
2019-04-27T01:59:59.702Z,3.13
2019-04-27T02:02:44.194Z,3.13
2019-04-27T02:05:29.014Z,2.87
2019-04-27T02:07:59.312Z,2.93
2019-04-27T02:10:29.311Z,3.00
2019-04-27T02:12:58.749Z,3.43
2019-04-27T02:15:29.346Z,3.10
2019-04-27T02:17:59.695Z,2.77
2019-04-27T02:20:30.142Z,3.03
2019-04-27T02:22:59.479Z,3.10
2019-04-27T02:25:29.453Z,3.00
2019-04-27T02:28:04.219Z,3.37
2019-04-27T02:31:01.858Z,2.70
2019-04-27T02:33:50.433Z,3.07
2019-04-27T02:36:20.254Z,3.30
2019-04-27T02:38:49.586Z,2.90
2019-04-27T02:41:19.930Z,3.13
2019-04-27T02:43:59.538Z,3.50
2019-04-27T02:46:31.261Z,3.30
2019-04-27T02:49:05.805Z,3.40
2019-04-27T02:51:42.879Z,3.73
2019-04-27T02:54:12.831Z,3.30
2019-04-27T02:56:41.963Z,3.47
2019-04-27T02:59:13.972Z,3.50
2019-04-27T03:01:52.966Z,3.30
2019-04-27T03:04:20.959Z,3.50
2019-04-27T03:06:50.354Z,3.37
2019-04-27T03:09:20.738Z,3.27
2019-04-27T03:11:59.455Z,3.40
2019-04-27T03:14:40.490Z,3.63
2019-04-27T03:17:36.319Z,3.63
2019-04-27T03:20:14.285Z,3.23
2019-04-27T03:22:46.147Z,3.50
2019-04-27T03:25:34.493Z,3.13
2019-04-27T03:28:14.419Z,3.50
2019-04-27T03:30:43.816Z,3.40
2019-04-27T03:33:13.103Z,2.90
2019-04-27T03:35:44.414Z,3.07
2019-04-27T03:38:15.243Z,2.90
2019-04-27T03:40:44.554Z,2.50
2019-04-27T03:43:20.070Z,3.00
2019-04-27T03:45:51.727Z,4.07
2019-04-27T03:48:20.508Z,3.63
2019-04-27T03:51:19.992Z,4.00
2019-04-27T03:54:00.388Z,3.77
2019-04-27T03:56:50.473Z,3.90
2019-04-27T03:59:40.566Z,3.73
2019-04-27T04:02:10.174Z,4.00
2019-04-27T04:04:40.546Z,4.10
2019-04-27T04:07:16.085Z,4.77
2019-04-27T04:09:45.290Z,4.27
2019-04-27T04:12:40.130Z,4.63
2019-04-27T04:15:12.720Z,4.00
2019-04-27T04:17:43.878Z,4.03
2019-04-27T04:20:13.093Z,4.77
2019-04-27T04:22:42.823Z,3.23
2019-04-27T04:25:13.121Z,4.70
2019-04-27T04:27:42.866Z,5.60
2019-04-27T04:30:12.806Z,5.70
2019-04-27T04:32:41.940Z,5.67
2019-04-27T04:35:21.935Z,6.93
2019-04-27T04:37:52.734Z,7.13
2019-04-27T04:40:26.385Z,6.83
2019-04-27T04:43:07.424Z,7.60
2019-04-27T04:45:59.473Z,6.80
2019-04-27T04:48:30.054Z,6.23
2019-04-27T04:51:00.792Z,6.27
2019-04-27T04:53:30.394Z,5.40
2019-04-27T04:56:00.329Z,6.10
2019-04-27T04:58:29.671Z,5.57
2019-04-27T05:00:59.625Z,5.50
2019-04-27T05:03:29.570Z,6.67
2019-04-27T05:05:59.871Z,5.50
2019-04-27T05:08:29.261Z,4.70
2019-04-27T05:10:59.671Z,5.80
2019-04-27T05:13:29.359Z,5.90
2019-04-27T05:15:58.993Z,6.00
2019-04-27T05:18:29.355Z,6.17
2019-04-27T05:21:08.661Z,5.50
2019-04-27T05:23:38.809Z,5.10
2019-04-27T05:26:09.109Z,4.60
2019-04-27T05:28:40.612Z,4.30
2019-04-27T05:31:09.322Z,3.83
2019-04-27T05:33:38.897Z,3.67
2019-04-27T05:36:09.185Z,3.13
2019-04-27T05:38:41.911Z,2.10
2019-04-27T05:41:09.419Z,2.27
2019-04-27T05:43:49.035Z,2.43
2019-04-27T05:46:39.676Z,2.30
2019-04-27T05:49:12.942Z,2.03
2019-04-27T05:51:42.151Z,1.60
2019-04-27T05:54:11.300Z,1.50
2019-04-27T05:56:40.440Z,1.77
2019-04-27T05:59:09.529Z,1.70
2019-04-27T06:01:39.103Z,1.80
2019-04-27T06:04:08.993Z,2.33
2019-04-27T06:06:39.843Z,2.27
2019-04-27T06:09:09.596Z,2.07
2019-04-27T06:11:39.983Z,2.10
2019-04-27T06:14:10.189Z,2.40
2019-04-27T06:16:39.453Z,2.50
2019-04-27T06:19:09.837Z,2.50
2019-04-27T06:21:40.103Z,2.93
2019-04-27T06:24:09.456Z,2.43
2019-04-27T06:26:39.921Z,2.23
2019-04-27T06:29:11.661Z,1.77
2019-04-27T06:31:46.026Z,2.40
2019-04-27T06:34:16.577Z,1.90
2019-04-27T06:36:45.803Z,2.00
2019-04-27T06:39:14.832Z,2.20
2019-04-27T06:41:43.942Z,1.70
2019-04-27T06:44:13.701Z,1.77
2019-04-27T06:46:42.805Z,1.53
2019-04-27T06:49:12.230Z,1.53
2019-04-27T06:51:44.116Z,1.70
2019-04-27T06:54:13.882Z,1.90
2019-04-27T06:56:43.009Z,1.83
2019-04-27T06:59:12.605Z,2.37
2019-04-27T07:01:44.098Z,1.43
2019-04-27T07:04:13.292Z,1.73
2019-04-27T07:06:53.189Z,1.70
2019-04-27T07:09:14.472Z,1.23
2019-04-27T07:11:43.627Z,2.30
2019-04-27T07:14:16.923Z,2.00
2019-04-27T07:16:48.837Z,2.63
2019-04-27T07:19:19.086Z,2.20
2019-04-27T07:21:49.792Z,2.13
2019-04-27T07:24:19.739Z,2.03
2019-04-27T07:26:49.957Z,2.43
2019-04-27T07:29:23.103Z,2.33
2019-04-27T07:31:53.768Z,2.07
2019-04-27T07:34:22.713Z,1.93
2019-04-27T07:36:51.843Z,2.47
2019-04-27T07:39:20.924Z,2.73
2019-04-27T07:41:50.138Z,3.10
2019-04-27T07:44:41.734Z,2.50
2019-04-27T07:47:19.443Z,3.20
2019-04-27T07:49:49.644Z,2.50
2019-04-27T07:52:20.553Z,2.87
2019-04-27T07:54:49.877Z,2.90
2019-04-27T07:57:19.763Z,3.50
2019-04-27T07:59:50.173Z,3.30
2019-04-27T08:02:19.660Z,3.40
2019-04-27T08:04:50.467Z,2.73
2019-04-27T08:07:19.890Z,3.20
2019-04-27T08:09:49.734Z,3.63
2019-04-27T08:12:20.816Z,3.10
2019-04-27T08:14:50.860Z,3.80
2019-04-27T08:17:21.302Z,3.43
2019-04-27T08:19:51.476Z,3.53
2019-04-27T08:22:20.605Z,2.93
2019-04-27T08:24:50.163Z,3.73
2019-04-27T08:27:29.457Z,3.67
2019-04-27T08:30:20.784Z,3.40
2019-04-27T08:32:50.855Z,3.53
2019-04-27T08:35:20.002Z,3.53
2019-04-27T08:37:49.648Z,4.17
2019-04-27T08:40:19.379Z,3.57
2019-04-27T08:42:50.827Z,2.90
2019-04-27T08:45:20.757Z,3.43
2019-04-27T08:47:50.086Z,3.83
2019-04-27T08:50:20.761Z,3.03
2019-04-27T08:52:50.277Z,3.03
2019-04-27T08:55:19.784Z,2.77
2019-04-27T08:57:49.161Z,3.43
2019-04-27T09:00:19.386Z,3.30
2019-04-27T09:02:50.311Z,3.30
2019-04-27T09:05:25.850Z,2.93
2019-04-27T09:08:25.295Z,3.63
2019-04-27T09:11:01.304Z,2.97
2019-04-27T09:13:37.139Z,3.07
2019-04-27T09:16:25.736Z,2.77
2019-04-27T09:18:59.832Z,3.37
2019-04-27T09:21:48.572Z,2.67
2019-04-27T09:24:18.845Z,2.13
2019-04-27T09:26:49.219Z,2.40
2019-04-27T09:29:19.749Z,2.03
2019-04-27T09:31:49.274Z,1.53
2019-04-27T09:34:18.943Z,1.80
2019-04-27T09:36:48.102Z,2.13
2019-04-27T09:39:17.296Z,1.97
2019-04-27T09:41:48.278Z,2.20
2019-04-27T09:44:17.589Z,2.67
2019-04-27T09:46:47.558Z,2.13
2019-04-27T09:49:17.279Z,2.77
2019-04-27T09:51:47.803Z,1.97
2019-04-27T09:54:17.400Z,2.47
2019-04-27T09:56:46.801Z,3.03
2019-04-27T09:59:16.391Z,2.00
2019-04-27T10:01:46.585Z,2.33
2019-04-27T10:04:17.483Z,3.43
2019-04-27T10:06:48.861Z,2.20
2019-04-27T10:09:18.395Z,2.03
2019-04-27T10:11:47.585Z,2.00
2019-04-27T10:14:16.964Z,2.43
2019-04-27T10:16:48.193Z,3.03
2019-04-27T10:19:28.232Z,2.60
2019-04-27T10:21:48.327Z,2.53
2019-04-27T10:24:17.554Z,3.10
2019-04-27T10:26:46.665Z,1.67
2019-04-27T10:29:16.207Z,3.20
2019-04-27T10:31:46.367Z,2.13
2019-04-27T10:34:18.520Z,2.83
2019-04-27T10:36:47.992Z,2.90
2019-04-27T10:39:17.440Z,1.60
2019-04-27T10:41:46.926Z,1.23
2019-04-27T10:44:16.471Z,2.13
2019-04-27T10:46:45.983Z,1.23
2019-04-27T10:49:15.925Z,1.57
2019-04-27T10:51:45.662Z,1.00
2019-04-27T10:54:16.692Z,1.50
2019-04-27T10:56:47.631Z,1.27
2019-04-27T10:59:16.722Z,1.07
2019-04-27T11:01:46.064Z,1.30
2019-04-27T11:04:25.945Z,0.90
2019-04-27T11:06:58.193Z,2.07
2019-04-27T11:09:27.493Z,1.97
2019-04-27T11:11:56.879Z,2.10
2019-04-27T11:14:26.296Z,1.70
2019-04-27T11:16:56.023Z,1.57
2019-04-27T11:19:27.323Z,2.07
2019-04-27T11:21:56.837Z,1.73
2019-04-27T11:24:26.013Z,1.50
2019-04-27T11:26:56.699Z,2.20
2019-04-27T11:29:27.701Z,1.73
2019-04-27T11:31:56.959Z,1.43
2019-04-27T11:34:45.954Z,1.67
2019-04-27T11:37:18.825Z,1.47
2019-04-27T11:39:48.234Z,1.07
2019-04-27T11:42:17.484Z,0.60
2019-04-27T11:44:47.125Z,1.07
2019-04-27T11:47:16.421Z,0.50
2019-04-27T11:49:45.719Z,0.80
2019-04-27T11:52:15.741Z,1.20
2019-04-27T11:54:47.875Z,0.97
2019-04-27T11:57:18.998Z,1.87
2019-04-27T11:59:48.260Z,1.87
2019-04-27T12:02:18.882Z,1.17
2019-04-27T12:04:48.158Z,1.37
2019-04-27T12:07:18.454Z,1.83
2019-04-27T12:09:48.141Z,1.67
2019-04-27T12:12:21.863Z,0.83
2019-04-27T12:14:51.263Z,2.10
2019-04-27T12:17:20.736Z,1.77
2019-04-27T12:19:50.475Z,1.60
2019-04-27T12:22:19.581Z,1.57
2019-04-27T12:24:50.940Z,1.90
2019-04-27T12:27:45.799Z,2.07
2019-04-27T12:30:23.479Z,1.10
2019-04-27T12:32:58.087Z,1.60
2019-04-27T12:35:27.505Z,1.43
2019-04-27T12:37:56.761Z,1.67
2019-04-27T12:40:26.818Z,1.60
2019-04-27T12:42:57.493Z,1.77
2019-04-27T12:45:26.821Z,1.57
2019-04-27T12:47:57.891Z,2.40
2019-04-27T12:50:27.193Z,2.17
2019-04-27T12:52:59.710Z,1.43
2019-04-27T12:55:48.196Z,2.30
2019-04-27T12:58:28.745Z,1.63
2019-04-27T13:00:58.512Z,1.33
2019-04-27T13:03:27.651Z,1.23
2019-04-27T13:05:56.859Z,2.47
2019-04-27T13:08:28.516Z,2.37
2019-04-27T13:11:00.169Z,1.87
2019-04-27T13:13:29.389Z,2.70
2019-04-27T13:15:59.712Z,2.20
2019-04-27T13:18:33.380Z,2.57
2019-04-27T13:21:04.675Z,1.83
2019-04-27T13:23:33.936Z,2.33
2019-04-27T13:26:03.118Z,1.40
2019-04-27T13:28:33.225Z,2.37
2019-04-27T13:31:02.468Z,1.73
2019-04-27T13:33:31.510Z,1.90
2019-04-27T13:36:00.723Z,1.80
2019-04-27T13:38:29.907Z,2.60
2019-04-27T13:41:09.727Z,1.77
2019-04-27T13:43:42.245Z,2.00
2019-04-27T13:46:30.405Z,1.97
2019-04-27T13:49:21.641Z,2.30
2019-04-27T13:52:12.799Z,1.63
2019-04-27T13:54:42.037Z,2.57
2019-04-27T13:57:11.135Z,2.60
2019-04-27T13:59:41.797Z,1.60
2019-04-27T14:02:11.402Z,2.00
2019-04-27T14:04:41.064Z,2.73
2019-04-27T14:07:10.514Z,2.67
2019-04-27T14:09:40.347Z,1.80
2019-04-27T14:12:21.222Z,1.43
2019-04-27T14:14:54.776Z,2.57
2019-04-27T14:17:24.224Z,2.27
2019-04-27T14:19:53.354Z,2.27
2019-04-27T14:22:22.870Z,1.60
2019-04-27T14:24:52.032Z,1.90
2019-04-27T14:27:23.882Z,1.97
2019-04-27T14:29:53.024Z,1.97
2019-04-27T14:32:22.288Z,2.47
2019-04-27T14:34:52.628Z,2.00
2019-04-27T14:37:21.854Z,1.90
2019-04-27T14:39:53.285Z,1.40
2019-04-27T14:42:24.228Z,2.30
2019-04-27T14:44:53.430Z,2.10
2019-04-27T14:47:31.112Z,2.20
2019-04-27T14:50:00.759Z,2.70
2019-04-27T14:52:29.921Z,2.57
2019-04-27T14:54:59.342Z,1.93
2019-04-27T14:57:29.201Z,2.60
2019-04-27T15:00:00.792Z,1.87
2019-04-27T15:02:30.043Z,1.03
2019-04-27T15:04:59.548Z,1.87
2019-04-27T15:07:28.767Z,1.93
2019-04-27T15:09:58.040Z,1.73
2019-04-27T15:12:30.473Z,1.70
2019-04-27T15:14:59.456Z,2.00
2019-04-27T15:17:29.610Z,2.33
2019-04-27T15:20:03.421Z,1.73
2019-04-27T15:22:35.108Z,2.13
2019-04-27T15:25:12.481Z,2.43
2019-04-27T15:27:45.670Z,2.10
2019-04-27T15:30:26.896Z,1.23
2019-04-27T15:33:17.600Z,1.67
2019-04-27T15:35:58.078Z,1.60
2019-04-27T15:38:28.806Z,1.00
2019-04-27T15:41:17.451Z,1.60
2019-04-27T15:43:48.743Z,2.23
2019-04-27T15:46:22.394Z,1.90
2019-04-27T15:48:55.836Z,1.73
2019-04-27T15:51:25.232Z,2.07
2019-04-27T15:53:56.240Z,2.37
2019-04-27T15:56:30.524Z,1.87
2019-04-27T15:58:59.965Z,2.40
2019-04-27T16:01:35.635Z,1.70
2019-04-27T16:04:02.457Z,1.70
2019-04-27T16:06:32.235Z,1.90
2019-04-27T16:09:01.447Z,1.50
2019-04-27T16:11:33.671Z,1.90
2019-04-27T16:14:06.300Z,1.07
2019-04-27T16:16:33.757Z,1.43
2019-04-27T16:19:08.837Z,2.37
2019-04-27T16:21:41.517Z,1.30
2019-04-27T16:24:12.575Z,1.40
2019-04-27T16:26:41.926Z,1.30
2019-04-27T16:29:11.213Z,0.80
2019-04-27T16:31:42.197Z,1.07
2019-04-27T16:34:11.344Z,1.37
2019-04-27T16:36:43.703Z,1.07
2019-04-27T16:39:12.060Z,1.77
2019-04-27T16:41:42.983Z,1.27
2019-04-27T16:44:12.465Z,1.83
2019-04-27T16:46:43.942Z,1.57
2019-04-27T16:49:14.800Z,1.07
2019-04-27T16:51:44.720Z,1.37
2019-04-27T16:54:17.553Z,1.10
2019-04-27T16:59:36.539Z,1.60
2019-04-27T17:01:50.296Z,0.97
2019-04-27T17:04:19.988Z,1.50
2019-04-27T17:06:49.663Z,1.77
2019-04-27T17:09:19.149Z,1.50
2019-04-27T17:11:50.158Z,1.50
2019-04-27T17:12:40.185Z,1.30
2019-04-27T17:14:42.859Z,1.03
2019-04-27T17:17:29.021Z,1.30
2019-04-27T17:20:00.915Z,0.80
2019-04-27T17:22:30.633Z,1.47
2019-04-27T17:25:00.059Z,1.10
2019-04-27T17:27:38.255Z,0.90
2019-04-27T17:30:09.181Z,1.43
2019-04-27T17:32:52.120Z,1.57
2019-04-27T17:35:21.248Z,1.30
2019-04-27T17:37:50.430Z,1.13
2019-04-27T17:40:19.798Z,1.40
2019-04-27T17:42:48.957Z,1.10
2019-04-27T17:45:19.385Z,1.30
2019-04-27T17:47:49.402Z,1.47
2019-04-27T17:50:25.135Z,1.10
2019-04-27T17:52:54.850Z,1.53
2019-04-27T17:55:24.226Z,2.10
2019-04-27T17:57:51.542Z,1.37
2019-04-27T18:00:21.234Z,0.80
2019-04-27T18:02:50.542Z,1.07
2019-04-27T18:05:19.668Z,1.20
2019-04-27T18:07:50.916Z,1.70
2019-04-27T18:10:23.906Z,0.87
2019-04-27T18:12:50.936Z,1.53
2019-04-27T18:15:20.362Z,1.53
2019-04-27T18:17:52.278Z,1.40
2019-04-27T18:20:23.991Z,1.07
2019-04-27T18:23:02.044Z,1.70
2019-04-27T18:25:40.374Z,0.80
2019-04-27T18:28:15.194Z,1.10
2019-04-27T18:30:56.166Z,0.80
2019-04-27T18:33:28.395Z,1.67
2019-04-27T18:36:05.002Z,1.07
2019-04-27T18:38:30.772Z,1.30
2019-04-27T18:41:02.975Z,1.17
2019-04-27T18:43:30.770Z,1.10
2019-04-27T18:45:59.859Z,1.03
2019-04-27T18:48:50.288Z,1.37
2019-04-27T18:51:29.231Z,1.03
2019-04-27T18:54:03.622Z,1.47
2019-04-27T18:56:33.480Z,1.30
2019-04-27T18:59:02.863Z,1.90
2019-04-27T19:01:32.333Z,1.97
2019-04-27T19:04:01.416Z,1.50
2019-04-27T19:06:30.528Z,1.90
2019-04-27T19:08:59.994Z,1.80
2019-04-27T19:11:29.197Z,1.10
2019-04-27T19:13:59.081Z,1.90
2019-04-27T19:16:29.672Z,1.40
2019-04-27T19:18:59.993Z,1.50
2019-04-27T19:21:29.547Z,1.50
2019-04-27T19:23:58.818Z,2.67
2019-04-27T19:26:48.480Z,1.27
2019-04-27T19:29:21.430Z,1.40
2019-04-27T19:31:58.620Z,1.63
2019-04-27T19:34:28.666Z,1.30
2019-04-27T19:36:59.205Z,1.37
2019-04-27T19:39:28.797Z,1.23
2019-04-27T19:42:02.995Z,1.60
2019-04-27T19:44:30.574Z,2.27
2019-04-27T19:47:01.115Z,1.63
2019-04-27T19:49:31.780Z,0.90
2019-04-27T19:52:01.172Z,1.70
2019-04-27T19:54:30.421Z,1.90
2019-04-27T19:56:59.672Z,1.93
2019-04-27T19:59:38.157Z,2.10
2019-04-27T20:02:11.961Z,1.80
2019-04-27T20:04:47.756Z,2.23
2019-04-27T20:07:18.200Z,2.53
2019-04-27T20:10:01.415Z,1.53
2019-04-27T20:12:31.378Z,1.50
2019-04-27T20:15:02.372Z,1.83
2019-04-27T20:17:32.290Z,1.93
2019-04-27T20:20:02.107Z,1.80
2019-04-27T20:22:33.055Z,3.17
2019-04-27T20:25:02.241Z,2.07
2019-04-27T20:27:45.007Z,1.87
2019-04-27T20:30:03.201Z,1.20
2019-04-27T20:32:34.740Z,1.73
2019-04-27T20:35:04.048Z,1.90
2019-04-27T20:37:34.321Z,1.57
2019-04-27T20:40:06.730Z,1.60
2019-04-27T20:42:35.881Z,1.73
2019-04-27T20:45:05.048Z,1.63
2019-04-27T20:47:34.281Z,1.87
2019-04-27T20:50:03.486Z,1.80
2019-04-27T20:52:51.811Z,1.87
2019-04-27T20:55:21.437Z,2.03
2019-04-27T20:58:01.876Z,2.30
2019-04-27T21:00:24.831Z,2.50
2019-04-27T21:03:12.744Z,1.80
2019-04-27T21:05:51.041Z,1.60
2019-04-27T21:08:20.885Z,1.67
2019-04-27T21:10:54.205Z,1.30
2019-04-27T21:13:23.337Z,1.70
2019-04-27T21:15:52.507Z,1.27
2019-04-27T21:18:21.784Z,0.73
2019-04-27T21:20:51.379Z,0.80
2019-04-27T21:23:21.051Z,0.90
2019-04-27T21:25:51.778Z,1.03
2019-04-27T21:28:22.104Z,1.20
2019-04-27T21:30:51.742Z,1.33
2019-04-27T21:33:21.556Z,1.40
2019-04-27T21:35:51.222Z,1.10
2019-04-27T21:38:20.616Z,1.30
2019-04-27T21:40:50.426Z,0.97
2019-04-27T21:43:22.562Z,1.20
2019-04-27T21:45:51.800Z,1.00
2019-04-27T21:48:21.297Z,1.00
2019-04-27T21:50:51.650Z,1.13
2019-04-27T21:53:33.740Z,1.40
2019-04-27T21:56:05.241Z,0.77
2019-04-27T21:58:34.641Z,1.30
2019-04-27T22:01:14.914Z,1.10
2019-04-27T22:03:44.005Z,1.40
2019-04-27T22:06:13.180Z,1.40
2019-04-27T22:08:42.304Z,1.00
2019-04-27T22:11:12.581Z,0.90
2019-04-27T22:13:41.699Z,1.07
2019-04-27T22:16:12.732Z,1.10
2019-04-27T22:18:41.815Z,1.43
2019-04-27T22:21:11.598Z,1.10
2019-04-27T22:24:00.973Z,1.47
2019-04-27T22:26:31.445Z,1.83
2019-04-27T22:29:01.593Z,1.27
2019-04-27T22:31:31.349Z,0.90
2019-04-27T22:34:01.924Z,0.90
2019-04-27T22:36:31.025Z,0.60
2019-04-27T22:39:04.709Z,0.40
2019-04-27T22:41:58.676Z,0.40
2019-04-27T22:44:38.251Z,0.30
2019-04-27T22:47:07.338Z,0.40
2019-04-27T22:49:36.474Z,0.50
2019-04-27T22:52:05.624Z,0.30
2019-04-27T22:54:34.718Z,0.33
2019-04-27T22:57:11.344Z,0.47
2019-04-27T22:59:57.171Z,0.37
2019-04-27T23:02:58.062Z,0.57
2019-04-27T23:05:27.524Z,0.60
2019-04-27T23:07:58.098Z,0.60
2019-04-27T23:10:29.129Z,0.50
2019-04-27T23:12:58.546Z,0.47
2019-04-27T23:15:33.112Z,0.60
2019-04-27T23:18:02.509Z,0.50
2019-04-27T23:20:32.154Z,0.80
2019-04-27T23:23:02.878Z,0.47
2019-04-27T23:25:38.690Z,0.70
2019-04-27T23:28:07.592Z,0.70
2019-04-27T23:30:56.155Z,0.87
2019-04-27T23:33:25.541Z,0.80
2019-04-27T23:35:54.659Z,0.80
2019-04-27T23:38:23.802Z,1.03
2019-04-27T23:40:52.905Z,1.20
2019-04-27T23:43:22.007Z,1.07
2019-04-27T23:45:51.625Z,0.80
2019-04-27T23:48:22.975Z,0.97
2019-04-27T23:50:54.937Z,0.87
2019-04-27T23:53:26.798Z,0.90
2019-04-27T23:55:55.903Z,0.93
2019-04-27T23:58:24.998Z,0.70
